createdAt,value
2023-02-11T00:00:24.960Z,58.72
2023-02-11T00:03:29.694Z,52.65
2023-02-11T00:06:34.230Z,49.17
2023-02-11T00:09:41.087Z,48.45
2023-02-11T00:12:43.475Z,50.58
2023-02-11T00:15:47.161Z,52.05
2023-02-11T00:18:50.348Z,52.03
2023-02-11T00:21:52.917Z,42.62
2023-02-11T00:24:57.135Z,52.53
2023-02-11T00:28:02.752Z,50.70
2023-02-11T00:31:05.510Z,55.35
2023-02-11T00:34:08.146Z,51.90
2023-02-11T00:37:14.893Z,51.08
2023-02-11T00:40:17.663Z,59.90
2023-02-11T00:43:22.620Z,55.10
2023-02-11T00:46:26.531Z,59.53
2023-02-11T00:49:28.799Z,52.67
2023-02-11T00:52:32.370Z,54.42
2023-02-11T00:55:34.744Z,55.78
2023-02-11T00:58:37.943Z,49.90
2023-02-11T01:01:40.470Z,41.92
2023-02-11T01:04:43.629Z,56.83
2023-02-11T01:07:46.303Z,56.83
2023-02-11T01:10:59.751Z,54.28
2023-02-11T01:14:02.349Z,48.58
2023-02-11T01:17:06.361Z,57.00
2023-02-11T01:20:15.452Z,40.90
2023-02-11T01:26:21.254Z,68.90
2023-02-11T01:29:26.255Z,48.78
2023-02-11T01:32:30.216Z,57.58
2023-02-11T01:35:32.804Z,41.88
2023-02-11T01:38:36.866Z,47.75
2023-02-11T01:41:39.535Z,49.63
2023-02-11T01:44:41.893Z,40.05
2023-02-11T01:47:44.973Z,42.47
2023-02-11T01:50:53.105Z,50.53
2023-02-11T01:54:16.281Z,53.60
2023-02-11T01:57:23.085Z,44.42
2023-02-11T02:00:40.981Z,46.28
2023-02-11T02:03:48.144Z,40.33
2023-02-11T02:06:59.614Z,43.67
2023-02-11T02:10:09.598Z,57.70
2023-02-11T02:13:12.860Z,45.53
2023-02-11T02:16:19.392Z,46.10
2023-02-11T02:19:48.937Z,48.22
2023-02-11T02:23:04.053Z,43.33
2023-02-11T02:26:28.430Z,41.67
2023-02-11T02:29:49.781Z,43.20
2023-02-11T02:33:22.517Z,45.25
2023-02-11T02:36:37.865Z,49.13
2023-02-11T02:39:40.324Z,38.10
2023-02-11T02:42:44.636Z,47.62
2023-02-11T02:45:46.960Z,42.83
2023-02-11T02:48:52.768Z,42.85
2023-02-11T02:52:20.575Z,47.10
2023-02-11T02:55:34.968Z,49.10
2023-02-11T02:59:03.476Z,45.75
2023-02-11T03:02:32.996Z,40.08
2023-02-11T03:06:08.012Z,40.12
2023-02-11T03:09:25.921Z,46.58
2023-02-11T03:12:31.508Z,39.80
2023-02-11T03:15:39.095Z,42.20
2023-02-11T03:18:46.670Z,42.40
2023-02-11T03:21:51.959Z,40.75
2023-02-11T03:24:56.509Z,42.20
2023-02-11T03:28:36.200Z,41.47
2023-02-11T03:31:58.086Z,43.28
2023-02-11T03:35:07.750Z,38.40
2023-02-11T03:38:24.372Z,44.35
2023-02-11T03:41:28.421Z,43.20
2023-02-11T03:44:37.172Z,37.10
2023-02-11T03:50:47.671Z,33.10
2023-02-11T03:53:55.025Z,40.17
2023-02-11T03:57:00.701Z,40.70
2023-02-11T04:00:06.078Z,42.38
2023-02-11T04:03:13.828Z,42.28
2023-02-11T04:06:23.603Z,41.70
2023-02-11T04:09:25.792Z,49.70
2023-02-11T04:12:28.292Z,37.50
2023-02-11T04:15:30.832Z,39.30
2023-02-11T04:18:35.493Z,47.80
2023-02-11T04:21:37.855Z,50.50
2023-02-11T04:24:40.998Z,40.00
2023-02-11T04:27:43.224Z,48.05
2023-02-11T04:30:46.177Z,41.85
2023-02-11T04:33:50.693Z,41.63
2023-02-11T04:36:55.290Z,43.70
2023-02-11T04:39:57.888Z,42.55
2023-02-11T04:43:00.425Z,43.92
2023-02-11T04:46:02.711Z,46.75
2023-02-11T04:49:05.891Z,40.60
2023-02-11T04:52:09.957Z,42.88
2023-02-11T04:55:12.998Z,38.30
2023-02-11T04:58:15.183Z,43.28
2023-02-11T05:01:17.895Z,39.45
2023-02-11T05:04:22.830Z,33.42
2023-02-11T05:07:26.480Z,41.90
2023-02-11T05:10:28.695Z,37.10
2023-02-11T05:13:32.148Z,37.05
2023-02-11T05:16:35.108Z,43.55
2023-02-11T05:19:37.736Z,42.50
2023-02-11T05:22:40.179Z,39.40
2023-02-11T05:25:42.668Z,40.50
2023-02-11T05:28:45.196Z,34.33
2023-02-11T05:31:47.641Z,46.33
2023-02-11T05:34:50.065Z,35.00
2023-02-11T05:37:52.673Z,38.95
2023-02-11T05:40:55.052Z,32.50
2023-02-11T05:43:57.591Z,35.35
2023-02-11T05:47:00.187Z,45.70
2023-02-11T05:50:03.430Z,41.88
2023-02-11T05:53:06.815Z,39.10
2023-02-11T05:56:10.545Z,37.35
2023-02-11T05:59:14.934Z,35.80
2023-02-11T06:02:17.565Z,37.63
2023-02-11T06:05:20.262Z,38.50
2023-02-11T06:08:22.552Z,46.45
2023-02-11T06:11:27.682Z,42.17
2023-02-11T06:14:35.497Z,45.15
2023-02-11T06:17:40.325Z,39.05
2023-02-11T06:20:44.067Z,47.42
2023-02-11T06:23:46.794Z,41.10
2023-02-11T06:26:49.751Z,47.58
2023-02-11T06:29:57.535Z,47.60
2023-02-11T06:32:59.821Z,40.53
2023-02-11T06:36:03.015Z,43.90
2023-02-11T06:39:05.795Z,42.92
2023-02-11T06:42:09.966Z,49.55
2023-02-11T06:45:13.400Z,47.62
2023-02-11T06:48:16.192Z,45.22
2023-02-11T06:51:21.164Z,46.35
2023-02-11T06:54:23.753Z,47.95
2023-02-11T06:57:28.076Z,43.92
2023-02-11T07:00:32.172Z,40.70
2023-02-11T07:03:36.763Z,41.08
2023-02-11T07:06:43.110Z,40.17
2023-02-11T07:09:45.684Z,50.70
2023-02-11T07:12:48.303Z,49.38
2023-02-11T07:15:53.229Z,42.13
2023-02-11T07:18:56.056Z,53.10
2023-02-11T07:21:58.182Z,50.72
2023-02-11T07:25:00.681Z,55.92
2023-02-11T07:28:03.735Z,52.45
2023-02-11T07:31:13.096Z,43.87
2023-02-11T07:37:18.062Z,42.90
2023-02-11T07:40:20.386Z,42.38
2023-02-11T07:43:22.920Z,50.58
2023-02-11T07:46:27.413Z,37.95
2023-02-11T07:49:30.857Z,36.85
2023-02-11T07:52:33.454Z,36.25
2023-02-11T07:55:37.482Z,39.35
2023-02-11T07:58:42.769Z,37.05
2023-02-11T08:01:45.563Z,42.33
2023-02-11T08:04:48.191Z,40.75
2023-02-11T08:07:54.577Z,42.58
2023-02-11T08:10:57.353Z,37.63
2023-02-11T08:13:59.919Z,44.85
2023-02-11T08:17:02.970Z,43.08
2023-02-11T08:20:06.936Z,45.63
2023-02-11T08:23:09.484Z,39.42
2023-02-11T08:26:16.067Z,41.30
2023-02-11T08:29:18.635Z,44.60
2023-02-11T08:32:22.046Z,34.97
2023-02-11T08:35:26.085Z,43.65
2023-02-11T08:38:28.364Z,43.00
2023-02-11T08:41:32.827Z,48.97
2023-02-11T08:44:35.100Z,44.05
2023-02-11T08:47:38.196Z,47.55
2023-02-11T08:50:41.385Z,32.55
2023-02-11T08:53:44.382Z,45.67
2023-02-11T08:56:51.639Z,47.22
2023-02-11T08:59:54.336Z,39.53
2023-02-11T09:02:58.726Z,39.08
2023-02-11T09:06:05.450Z,41.30
2023-02-11T09:09:13.508Z,46.53
2023-02-11T09:12:16.084Z,44.17
2023-02-11T09:15:18.313Z,49.95
2023-02-11T09:18:20.928Z,53.33
2023-02-11T09:21:25.812Z,46.28
2023-02-11T09:24:28.879Z,45.65
2023-02-11T09:27:31.211Z,42.85
2023-02-11T09:30:34.083Z,37.33
2023-02-11T09:33:37.474Z,44.30
2023-02-11T09:36:42.459Z,36.75
2023-02-11T09:39:46.334Z,40.60
2023-02-11T09:43:06.929Z,43.05
2023-02-11T09:46:15.392Z,44.25
2023-02-11T09:49:30.512Z,48.17
2023-02-11T09:52:49.214Z,50.65
2023-02-11T09:55:59.545Z,47.78
2023-02-11T09:59:01.846Z,51.10
2023-02-11T10:02:16.161Z,49.40
2023-02-11T10:05:25.418Z,44.58
2023-02-11T10:09:06.904Z,65.32
2023-02-11T10:12:28.118Z,51.47
2023-02-11T10:15:36.484Z,49.28
2023-02-11T10:18:51.270Z,52.80
2023-02-11T10:22:16.992Z,46.08
2023-02-11T10:25:22.522Z,51.35
2023-02-11T10:28:31.008Z,50.22
2023-02-11T10:31:42.447Z,46.58
2023-02-11T10:34:46.902Z,42.92
2023-02-11T10:37:50.053Z,46.33
2023-02-11T10:40:52.624Z,48.42
2023-02-11T10:43:55.636Z,40.20
2023-02-11T10:47:05.253Z,45.40
2023-02-11T10:50:26.852Z,43.87
2023-02-11T10:53:29.700Z,40.50
2023-02-11T10:56:37.929Z,49.20
2023-02-11T10:59:40.604Z,46.08
2023-02-11T11:02:44.875Z,46.45
2023-02-11T11:05:51.183Z,45.47
2023-02-11T11:08:54.255Z,43.40
2023-02-11T11:11:58.927Z,41.37
2023-02-11T11:15:01.800Z,50.08
2023-02-11T11:18:23.073Z,48.50
2023-02-11T11:21:36.918Z,55.60
2023-02-11T11:24:46.030Z,44.85
2023-02-11T11:27:51.039Z,45.12
2023-02-11T11:30:58.141Z,49.67
2023-02-11T11:34:20.951Z,36.60
2023-02-11T11:37:35.405Z,34.00
2023-02-11T11:40:40.562Z,43.53
2023-02-11T11:44:05.981Z,32.22
2023-02-11T11:47:11.821Z,35.70
2023-02-11T11:50:22.896Z,34.28
2023-02-11T11:53:53.288Z,35.90
2023-02-11T11:57:11.041Z,36.60
2023-02-11T12:00:17.773Z,36.97
2023-02-11T12:03:32.412Z,38.90
2023-02-11T12:06:41.205Z,36.97
2023-02-11T12:13:19.952Z,39.15
2023-02-11T12:16:38.068Z,37.88
2023-02-11T12:19:50.229Z,31.25
2023-02-11T12:22:56.022Z,40.90
2023-02-11T12:26:14.410Z,38.88
2023-02-11T12:29:32.412Z,36.27
2023-02-11T12:33:07.607Z,36.53
2023-02-11T12:36:19.833Z,27.85
2023-02-11T12:39:22.030Z,33.50
2023-02-11T12:43:11.437Z,35.63
2023-02-11T12:46:33.445Z,33.20
2023-02-11T12:50:09.137Z,36.33
2023-02-11T12:53:30.020Z,35.45
2023-02-11T12:56:52.922Z,31.50
2023-02-11T13:00:18.448Z,30.58
2023-02-11T13:03:27.266Z,35.50
2023-02-11T13:06:36.277Z,32.40
2023-02-11T13:09:51.921Z,32.90
2023-02-11T13:13:15.426Z,33.85
2023-02-11T13:16:27.761Z,29.67
2023-02-11T13:19:48.646Z,26.87
2023-02-11T13:23:22.061Z,29.70
2023-02-11T13:26:47.341Z,26.58
2023-02-11T13:29:56.285Z,27.20
2023-02-11T13:36:05.325Z,27.37
2023-02-11T13:39:21.099Z,26.52
2023-02-11T13:42:24.346Z,24.30
2023-02-11T13:45:52.031Z,25.00
2023-02-11T13:48:55.233Z,27.65
2023-02-11T13:51:59.253Z,31.45
2023-02-11T13:55:14.482Z,28.35
2023-02-11T13:58:28.960Z,25.92
2023-02-11T14:02:12.483Z,26.17
2023-02-11T14:05:51.976Z,29.02
2023-02-11T14:09:09.614Z,30.92
2023-02-11T14:12:31.868Z,26.05
2023-02-11T14:15:40.927Z,23.52
2023-02-11T14:18:51.917Z,27.23
2023-02-11T14:22:18.812Z,26.17
2023-02-11T14:25:27.375Z,26.27
2023-02-11T14:28:34.193Z,23.92
2023-02-11T14:32:06.110Z,34.53
2023-02-11T14:35:19.062Z,26.25
2023-02-11T14:39:07.670Z,26.12
2023-02-11T14:42:20.830Z,25.00
2023-02-11T14:45:27.290Z,26.58
2023-02-11T14:48:40.163Z,28.87
2023-02-11T14:51:44.006Z,30.80
2023-02-11T14:54:49.291Z,32.97
2023-02-11T14:58:25.393Z,36.20
2023-02-11T15:01:36.249Z,30.67
2023-02-11T15:04:40.422Z,28.10
2023-02-11T15:07:57.016Z,28.85
2023-02-11T15:11:02.916Z,30.30
2023-02-11T15:14:25.889Z,32.55
2023-02-11T15:17:34.403Z,29.50
2023-02-11T15:20:37.019Z,28.43
2023-02-11T15:23:43.188Z,33.47
2023-02-11T15:26:45.386Z,32.78
2023-02-11T15:29:50.642Z,26.45
2023-02-11T15:32:59.890Z,28.02
2023-02-11T15:36:11.141Z,32.00
2023-02-11T15:39:33.525Z,31.95
2023-02-11T15:42:51.788Z,29.05
2023-02-11T15:46:01.217Z,37.30
2023-02-11T15:49:04.244Z,27.75
2023-02-11T15:52:08.226Z,28.25
2023-02-11T15:55:15.745Z,32.47
2023-02-11T15:58:18.307Z,29.33
2023-02-11T16:01:34.080Z,32.88
2023-02-11T16:04:37.728Z,28.90
2023-02-11T16:07:53.542Z,39.15
2023-02-11T16:11:08.935Z,31.70
2023-02-11T16:14:31.637Z,27.65
2023-02-11T16:17:34.460Z,30.37
2023-02-11T16:20:36.673Z,33.25
2023-02-11T16:23:45.504Z,29.73
2023-02-11T16:26:53.456Z,32.22
2023-02-11T16:29:58.132Z,51.13
2023-02-11T16:33:00.672Z,73.65
2023-02-11T16:36:13.936Z,71.43
2023-02-11T16:39:18.201Z,47.00
2023-02-11T16:42:20.654Z,40.97
2023-02-11T16:45:22.957Z,39.15
2023-02-11T16:48:25.666Z,33.08
2023-02-11T16:51:27.999Z,30.95
2023-02-11T16:54:30.625Z,36.95
2023-02-11T16:57:32.842Z,37.55
2023-02-11T17:00:36.441Z,38.33
2023-02-11T17:03:40.599Z,38.47
2023-02-11T17:06:43.504Z,40.20
2023-02-11T17:09:45.700Z,36.63
2023-02-11T17:12:49.912Z,32.88
2023-02-11T17:15:52.485Z,34.15
2023-02-11T17:18:55.243Z,36.38
2023-02-11T17:21:57.441Z,34.20
2023-02-11T17:25:04.803Z,36.70
2023-02-11T17:28:09.451Z,35.83
2023-02-11T17:31:12.300Z,34.58
2023-02-11T17:34:14.972Z,34.63
2023-02-11T17:37:17.781Z,39.47
2023-02-11T17:40:21.558Z,35.63
2023-02-11T17:43:25.169Z,37.97
2023-02-11T17:46:32.384Z,34.20
2023-02-11T17:49:35.132Z,35.30
2023-02-11T17:52:37.889Z,34.38
2023-02-11T17:55:40.588Z,34.17
2023-02-11T17:58:42.873Z,39.72
2023-02-11T18:01:45.700Z,39.65
2023-02-11T18:04:48.334Z,35.30
2023-02-11T18:07:50.696Z,34.75
2023-02-11T18:10:53.341Z,36.38
2023-02-11T18:13:55.992Z,30.90
2023-02-11T18:16:58.672Z,35.20
2023-02-11T18:20:01.081Z,38.30
2023-02-11T18:23:04.617Z,38.67
2023-02-11T18:26:07.969Z,40.92
2023-02-11T18:29:10.570Z,34.47
2023-02-11T18:32:13.683Z,37.28
2023-02-11T18:35:18.168Z,36.60
2023-02-11T18:38:22.247Z,39.17
2023-02-11T18:41:24.850Z,37.35
2023-02-11T18:44:27.480Z,37.97
2023-02-11T18:47:31.320Z,38.90
2023-02-11T18:50:33.685Z,41.17
2023-02-11T18:53:36.397Z,42.75
2023-02-11T18:56:39.210Z,37.88
2023-02-11T18:59:42.875Z,35.90
2023-02-11T19:02:45.137Z,38.63
2023-02-11T19:05:49.382Z,39.25
2023-02-11T19:08:53.647Z,39.13
2023-02-11T19:11:57.926Z,45.17
2023-02-11T19:15:00.864Z,37.58
2023-02-11T19:18:03.428Z,43.28
2023-02-11T19:21:13.134Z,39.30
2023-02-11T19:24:18.936Z,40.40
2023-02-11T19:27:21.421Z,37.38
2023-02-11T19:30:24.293Z,40.28
2023-02-11T19:33:26.544Z,40.88
2023-02-11T19:36:29.462Z,36.30
2023-02-11T19:39:31.754Z,44.10
2023-02-11T19:42:34.366Z,39.80
2023-02-11T19:45:39.606Z,38.50
2023-02-11T19:48:42.362Z,52.25
2023-02-11T19:51:44.597Z,40.95
2023-02-11T19:54:47.203Z,38.47
2023-02-11T19:57:50.078Z,40.00
2023-02-11T20:00:52.999Z,38.42
2023-02-11T20:03:57.485Z,37.10
2023-02-11T20:06:59.870Z,43.65
2023-02-11T20:10:02.707Z,44.15
2023-02-11T20:13:05.129Z,38.75
2023-02-11T20:16:13.450Z,41.78
2023-02-11T20:19:18.655Z,36.67
2023-02-11T20:22:22.134Z,36.38
2023-02-11T20:25:24.641Z,36.30
2023-02-11T20:28:27.547Z,40.50
2023-02-11T20:31:32.241Z,35.28
2023-02-11T20:34:34.998Z,36.60
2023-02-11T20:37:38.708Z,36.63
2023-02-11T20:40:41.327Z,36.05
2023-02-11T20:43:46.162Z,36.50
2023-02-11T20:46:49.392Z,35.22
2023-02-11T20:49:54.933Z,34.83
2023-02-11T20:52:57.543Z,33.72
2023-02-11T20:56:10.748Z,28.25
2023-02-11T20:59:14.304Z,26.27
2023-02-11T21:02:16.620Z,26.90
2023-02-11T21:05:19.745Z,22.15
2023-02-11T21:08:21.889Z,24.87
2023-02-11T21:11:24.588Z,23.85
2023-02-11T21:14:28.733Z,23.25
2023-02-11T21:17:32.049Z,26.65
2023-02-11T21:20:34.353Z,22.08
2023-02-11T21:23:39.532Z,30.83
2023-02-11T21:26:42.321Z,21.48
2023-02-11T21:29:53.748Z,29.05
2023-02-11T21:33:00.462Z,29.27
2023-02-11T21:36:04.554Z,24.45
2023-02-11T21:39:07.091Z,23.87
2023-02-11T21:42:09.776Z,21.90
2023-02-11T21:45:12.048Z,23.95
2023-02-11T21:48:15.240Z,26.15
2023-02-11T21:51:20.742Z,25.05
2023-02-11T21:54:25.748Z,23.23
2023-02-11T21:57:28.036Z,24.02
2023-02-11T22:00:31.235Z,23.58
2023-02-11T22:03:33.793Z,15.75
2023-02-11T22:06:35.980Z,26.85
2023-02-11T22:09:39.638Z,24.02
2023-02-11T22:12:42.189Z,24.90
2023-02-11T22:15:44.646Z,24.42
2023-02-11T22:18:46.956Z,26.48
2023-02-11T22:21:49.813Z,24.42
2023-02-11T22:24:53.970Z,25.20
2023-02-11T22:27:56.610Z,26.60
2023-02-11T22:30:59.150Z,27.85
2023-02-11T22:34:03.484Z,24.48
2023-02-11T22:37:07.437Z,29.65
2023-02-11T22:40:10.515Z,22.17
2023-02-11T22:43:12.721Z,29.15
2023-02-11T22:46:18.118Z,27.13
2023-02-11T22:49:21.644Z,24.35
2023-02-11T22:52:24.143Z,23.80
2023-02-11T22:55:26.699Z,19.52
2023-02-11T22:58:29.386Z,21.67
2023-02-11T23:01:32.087Z,23.90
2023-02-11T23:04:34.770Z,19.85
2023-02-11T23:07:37.191Z,26.10
2023-02-11T23:10:40.343Z,24.85
2023-02-11T23:13:43.334Z,25.70
2023-02-11T23:16:46.103Z,21.75
2023-02-11T23:19:48.445Z,24.15
2023-02-11T23:22:51.122Z,22.95
2023-02-11T23:25:53.518Z,22.05
2023-02-11T23:28:58.008Z,23.98
2023-02-11T23:32:00.437Z,22.30
2023-02-11T23:35:03.312Z,25.42
2023-02-11T23:38:05.805Z,21.20
2023-02-11T23:41:08.570Z,19.20
2023-02-11T23:44:11.003Z,18.80
2023-02-11T23:47:13.815Z,24.77
2023-02-11T23:50:16.228Z,26.12
2023-02-11T23:53:18.954Z,28.48
2023-02-11T23:56:26.924Z,26.35
2023-02-11T23:59:29.809Z,26.60
